Погода Славянкана 2 недели

Могилёвская область, Белоруссия

23 мая-05 июня
  • 23мая
    Сегодня
    +11°
    +23°
    Пасмурно, дожди с грозами
    ВремяПогодаТемператураВлажностьДавлениеВетер, м/сВероятность осадков
    00:00Ясно и безоблачно+15°C93 %748 мм3.5 м/с2 %
    03:00Ясно и безоблачно+14°C94 %748 мм3.4 м/с2 %
    06:00Ясно и безоблачно+13°C95 %749 мм4.2 м/с2 %
    09:00Ясно и безоблачно+19°C78 %750 мм4.3 м/с2 %
    12:00Практически безоблачно+22°C65 %750 мм5.2 м/с3 %
    15:00Пасмурно, дожди с грозами+22°C62 %750 мм4.3 м/с26 %
    18:00Облачно с прояснениями+22°C59 %750 мм4.8 м/с46 %
    21:00Небольшая облачность+19°C62 %751 мм4.1 м/с2 %
  • 24мая
    Пятница
    +10°
    +22°
    Практически безоблачно
    ВремяПогодаТемператураВлажностьДавлениеВетер, м/сВероятность осадков
    00:00Практически безоблачно+15°C58 %752 мм5.3 м/с2 %
    03:00Ясно и безоблачно+13°C62 %753 мм4.5 м/с2 %
    06:00Ясно и безоблачно+11°C65 %753 мм4.7 м/с1 %
    09:00Ясно и безоблачно+16°C57 %754 мм4.9 м/с1 %
    12:00Ясно и безоблачно+19°C50 %754 мм4.6 м/с2 %
    15:00Практически безоблачно+21°C45 %754 мм4.5 м/с2 %
    18:00Ясно и безоблачно+21°C45 %753 мм4.4 м/с2 %
    21:00Ясно и безоблачно+17°C60 %753 мм3.3 м/с2 %
  • 25мая
    Суббота
    +9°
    +24°
    Практически безоблачно
    ВремяПогодаТемператураВлажностьДавлениеВетер, м/сВероятность осадков
    00:00Ясно и безоблачно+13°C66 %753 мм3.3 м/с2 %
    03:00Практически безоблачно+11°C74 %753 мм3.3 м/с2 %
    06:00Практически безоблачно+11°C75 %753 мм3.6 м/с2 %
    09:00Небольшая облачность+16°C60 %753 мм3.6 м/с2 %
    12:00Ясно и безоблачно+21°C50 %753 мм3.3 м/с2 %
    15:00Практически безоблачно+23°C41 %752 мм3.6 м/с4 %
    18:00Небольшая облачность+23°C42 %751 мм3.5 м/с9 %
    21:00Практически безоблачно+18°C59 %751 мм3.0 м/с2 %
  • 26мая
    Воскресенье
    +10°
    +24°
    Практически безоблачно
    ВремяПогодаТемператураВлажностьДавлениеВетер, м/сВероятность осадков
    00:00Ясно и безоблачно+14°C67 %751 мм2.6 м/с2 %
    03:00Ясно и безоблачно+11°C73 %750 мм2.3 м/с2 %
    06:00Ясно и безоблачно+11°C73 %750 мм2.2 м/с2 %
    09:00Ясно и безоблачно+18°C60 %751 мм1.7 м/с4 %
    12:00Ясно и безоблачно+22°C38 %751 мм2.0 м/с2 %
    15:00Практически безоблачно+23°C38 %750 мм1.7 м/с4 %
    18:00Ясно и безоблачно+23°C39 %750 мм1.1 м/с3 %
    21:00Ясно и безоблачно+17°C69 %750 мм2.3 м/с2 %
  • 27мая
    Понедельник
    +13°
    +25°
    Практически безоблачно
    ВремяПогодаТемператураВлажностьДавлениеВетер, м/сВероятность осадков
    00:00Ясно и безоблачно+17°C58 %750 мм1.6 м/с2 %
    03:00Ясно и безоблачно+13°C70 %750 мм1.5 м/с2 %
    06:00Ясно и безоблачно+13°C74 %751 мм1.6 м/с2 %
    09:00Практически безоблачно+20°C56 %752 мм2.0 м/с2 %
    12:00Практически безоблачно+24°C39 %752 мм2.1 м/с11 %
    15:00Практически безоблачно+25°C41 %751 мм2.0 м/с23 %
    18:00Ясно и безоблачно+24°C42 %750 мм2.2 м/с35 %
    21:00Ясно и безоблачно+19°C70 %750 мм2.2 м/с9 %
Мы используем cookies
Соглашаюсь